Terminal Aerodrome Forecast
Issued by NWS

Home | Current Version | Previous Version | Text Only | Print | Product List | Glossary On
Versions: 1 2 3 4 5 6 7 8 9 10 11 12 13 14 15 16 17 18 19 20 21
844
FTUS43 KSGF 181236 CCA
TAFJLN
TAF COR
KJLN 181236Z 1813/1912 31024G36KT P6SM -SHRA OVC008
      TEMPO 1814/1817 4SM -DZ BR OVC006
     FM181800 33024G36KT P6SM BKN015
     FM182000 33023G32KT P6SM BKN070
     FM182300 32018G26KT P6SM SKC
     FM190000 31008KT P6SM SKC=

USA.gov is the U.S. government's official web portal to all federal, state and local government web resources and services.